Welcome to Northern Hawkes Bay. New Zealand.
PWS Header
      nz Flag



Hit Counter


W3C Valid W3C Valid logo


    Wairoa

Select any of the Stations below to visit their websites.










Historic Data from Weather Underground
Select the location of interest below. Wairoa is the default. Please have patience, this Data is slow to load in.
Northern Hawkes Bay Historical Data
Daily Summary for April 18, 2018 Units:  Metric    English   Both
« Previous Day
Next Day »
Daily Weekly Monthly Yearly Custom
  High: Low: Average:
Temperature: 21.7 °C 6.5 °C 15.1 °C
Dew Point: 14.9 °C 5.4 °C 9.9 °C
Humidity: 98% 36% 74%
Wind Speed: 29.4km/h 0.0km/h 4.7km/h
Wind Gust: 43.9km/h - -
Wind- - WNW
Pressure: 1014.8 hPa 1003.9 hPa -
Precipitation: 0.0 mm    
Historical Graphs
 
 
Tabular Data for April 18, 2018
Time Temperature Dew Point Pressure Wind Wind Speed Wind Gust Humidity Rainfall Rate (Hourly) solar
00:02 16.5 °C 14.7 °C 1005.3 hPa Calm     89% 0.0 mm 0 W/m2
00:07 16.5 °C 14.9 °C 1005.3 hPa Calm     90% 0.0 mm 0 W/m2
00:12 16.4 °C 14.8 °C 1005.3 hPa Calm     90% 0.0 mm 0 W/m2
00:17 16.3 °C 14.7 °C 1005.3 hPa Calm     90% 0.0 mm 0 W/m2
00:22 16.3 °C 14.7 °C 1005.3 hPa Calm   5.0 km/h 90% 0.0 mm 0 W/m2
00:27 16.4 °C 14.9 °C 1005.3 hPa Calm   5.0 km/h 91% 0.0 mm 0 W/m2
00:32 16.3 °C 14.7 °C 1005.0 hPa Calm   3.5 km/h 90% 0.0 mm 0 W/m2
00:37 16.2 °C 14.6 °C 1005.3 hPa Calm     90% 0.0 mm 0 W/m2
00:42 16.1 °C 14.6 °C 1005.3 hPa Calm   5.0 km/h 91% 0.0 mm 0 W/m2
00:47 16.1 °C 14.6 °C 1005.0 hPa Calm   5.0 km/h 91% 0.0 mm 0 W/m2
00:52 15.9 °C 14.6 °C 1005.0 hPa Calm   2.6 km/h 92% 0.0 mm 0 W/m2
00:57 15.7 °C 14.6 °C 1005.3 hPa Calm   2.6 km/h 93% 0.0 mm 0 W/m2
01:02 15.6 °C 14.5 °C 1005.0 hPa Calm   1.1 km/h 93% 0.0 mm 0 W/m2
01:07 15.4 °C 14.3 °C 1005.0 hPa Calm   1.1 km/h 93% 0.0 mm 0 W/m2
01:12 15.4 °C 14.4 °C 1005.0 hPa Calm   1.1 km/h 94% 0.0 mm 0 W/m2
01:17 15.4 °C 14.4 °C 1005.0 hPa Calm   1.1 km/h 94% 0.0 mm 0 W/m2
01:22 15.4 °C 14.6 °C 1005.0 hPa Calm   1.1 km/h 95% 0.0 mm 0 W/m2
01:27 15.4 °C 14.6 °C 1005.0 hPa Calm   2.6 km/h 95% 0.0 mm 0 W/m2
01:32 15.3 °C 14.5 °C 1005.0 hPa NNW 1.1 km/h 5.0 km/h 95% 0.0 mm 0 W/m2
01:37 15.3 °C 14.5 °C 1005.3 hPa NW 1.1 km/h 7.2 km/h 95% 0.0 mm 0 W/m2
01:42 15.5 °C 14.6 °C 1005.0 hPa NNW 3.5 km/h 8.7 km/h 94% 0.0 mm 0 W/m2
01:47 15.9 °C 14.3 °C 1005.0 hPa NNW 5.0 km/h 9.7 km/h 90% 0.0 mm 0 W/m2
01:52 16.8 °C 13.9 °C 1005.0 hPa NW 12.2 km/h 15.8 km/h 83% 0.0 mm 0 W/m2
01:57 17.6 °C 13.1 °C 1005.3 hPa NNW 7.2 km/h 18.3 km/h 75% 0.0 mm 0 W/m2
02:02 17.9 °C 12.8 °C 1005.3 hPa NNW 7.2 km/h 18.3 km/h 72% 0.0 mm 0 W/m2
02:07 18.2 °C 12.7 °C 1005.3 hPa NW 8.7 km/h 18.3 km/h 70% 0.0 mm 0 W/m2
02:12 18.4 °C 12.4 °C 1005.3 hPa NW 8.7 km/h 20.9 km/h 68% 0.0 mm 0 W/m2
02:17 18.4 °C 12.4 °C 1005.3 hPa NW 9.7 km/h 20.9 km/h 68% 0.0 mm 0 W/m2
02:22 18.4 °C 12.2 °C 1005.3 hPa NW 6.1 km/h 20.9 km/h 67% 0.0 mm 0 W/m2
02:27 18.1 °C 12.1 °C 1005.3 hPa NW 6.1 km/h 18.3 km/h 68% 0.0 mm 0 W/m2
02:32 17.7 °C 12.2 °C 1005.3 hPa NW 6.1 km/h 13.4 km/h 70% 0.0 mm 0 W/m2
02:37 17.6 °C 12.1 °C 1005.3 hPa NW 3.5 km/h 13.4 km/h 70% 0.0 mm 0 W/m2
02:42 17.4 °C 12.1 °C 1005.3 hPa NW 2.6 km/h 9.7 km/h 71% 0.0 mm 0 W/m2
02:47 17.2 °C 11.9 °C 1005.3 hPa NW 1.1 km/h 9.7 km/h 71% 0.0 mm 0 W/m2
02:52 17.0 °C 11.9 °C 1005.3 hPa NW 6.1 km/h 8.7 km/h 72% 0.0 mm 0 W/m2
02:57 16.8 °C 11.9 °C 1005.0 hPa Calm   8.7 km/h 73% 0.0 mm 0 W/m2
03:02 16.6 °C 11.9 °C 1005.0 hPa NW 2.6 km/h 8.7 km/h 74% 0.0 mm 0 W/m2
03:07 16.4 °C 11.8 °C 1005.0 hPa NW 2.6 km/h 7.2 km/h 74% 0.0 mm 0 W/m2
03:12 16.4 °C 11.9 °C 1005.0 hPa Calm   7.2 km/h 75% 0.0 mm 0 W/m2
03:17 16.3 °C 11.9 °C 1005.0 hPa Calm   7.2 km/h 75% 0.0 mm 0 W/m2
03:22 16.2 °C 11.8 °C 1004.6 hPa NNW 3.5 km/h 7.2 km/h 75% 0.0 mm 0 W/m2
03:27 16.2 °C 11.8 °C 1004.6 hPa NNW 5.0 km/h 9.7 km/h 75% 0.0 mm 0 W/m2
03:32 16.1 °C 11.4 °C 1004.6 hPa NNW 6.1 km/h 9.7 km/h 74% 0.0 mm 0 W/m2
03:37 16.0 °C 11.2 °C 1004.6 hPa NNW 6.1 km/h 12.2 km/h 73% 0.0 mm 0 W/m2
03:42 15.9 °C 11.3 °C 1004.6 hPa North 6.1 km/h 12.2 km/h 74% 0.0 mm 0 W/m2
03:47 15.8 °C 11.4 °C 1004.6 hPa North 5.0 km/h 15.8 km/h 75% 0.0 mm 0 W/m2
03:52 15.8 °C 11.4 °C 1004.6 hPa NNW 6.1 km/h 15.8 km/h 75% 0.0 mm 0 W/m2
03:57 15.8 °C 11.6 °C 1004.6 hPa NNW 5.0 km/h 14.8 km/h 76% 0.0 mm 0 W/m2
04:02 15.7 °C 11.5 °C 1004.6 hPa NNW 5.0 km/h 13.4 km/h 76% 0.0 mm 0 W/m2
04:07 15.6 °C 11.4 °C 1005.0 hPa NNW 3.5 km/h 11.1 km/h 76% 0.0 mm 0 W/m2
04:12 15.4 °C 11.4 °C 1005.0 hPa NNW 6.1 km/h 11.1 km/h 77% 0.0 mm 0 W/m2
04:17 15.3 °C 11.3 °C 1005.0 hPa NW 2.6 km/h 9.7 km/h 77% 0.0 mm 0 W/m2
04:22 15.0 °C 11.2 °C 1005.0 hPa NW 3.5 km/h 8.7 km/h 78% 0.0 mm 0 W/m2
04:43 14.7 °C 11.5 °C 1004.6 hPa NNW 5.0 km/h 9.7 km/h 81% 0.0 mm 0 W/m2
04:48 14.5 °C 11.3 °C 1004.6 hPa North 7.2 km/h 11.1 km/h 81% 0.0 mm 0 W/m2
04:53 14.5 °C 11.3 °C 1004.6 hPa NNW 6.1 km/h 11.1 km/h 81% 0.0 mm 0 W/m2
04:58 14.6 °C 11.4 °C 1004.6 hPa NNW 6.1 km/h 12.2 km/h 81% 0.0 mm 0 W/m2
05:03 14.7 °C 11.5 °C 1004.6 hPa NNW 7.2 km/h 13.4 km/h 81% 0.0 mm 0 W/m2
05:08 15.1 °C 11.3 °C 1004.6 hPa North 8.7 km/h 17.2 km/h 78% 0.0 mm 0 W/m2
05:13 15.3 °C 11.3 °C 1004.6 hPa North 9.7 km/h 17.2 km/h 77% 0.0 mm 0 W/m2
05:18 15.5 °C 11.1 °C 1004.6 hPa NNW 6.1 km/h 17.2 km/h 75% 0.0 mm 0 W/m2
05:23 15.5 °C 11.1 °C 1004.6 hPa North 3.5 km/h 17.2 km/h 75% 0.0 mm 0 W/m2
05:28 15.5 °C 11.1 °C 1004.6 hPa North 1.1 km/h 12.2 km/h 75% 0.0 mm 0 W/m2
05:33 15.4 °C 11.0 °C 1004.3 hPa Calm   8.7 km/h 75% 0.0 mm 0 W/m2
05:38 14.9 °C 10.7 °C 1004.3 hPa Calm   2.6 km/h 76% 0.0 mm 0 W/m2
05:43 14.6 °C 10.6 °C 1004.3 hPa Calm     77% 0.0 mm 0 W/m2
05:48 14.4 °C 10.6 °C 1004.6 hPa Calm     78% 0.0 mm 0 W/m2
05:53 14.2 °C 10.4 °C 1004.3 hPa Calm     78% 0.0 mm 0 W/m2
05:58 14.1 °C 10.5 °C 1004.3 hPa Calm     79% 0.0 mm 0 W/m2
06:03 14.0 °C 10.4 °C 1004.3 hPa Calm     79% 0.0 mm 0 W/m2
06:08 13.9 °C 10.7 °C 1004.3 hPa Calm     81% 0.0 mm 0 W/m2
06:13 13.6 °C 10.4 °C 1003.9 hPa Calm     81% 0.0 mm 0 W/m2
06:18 13.4 °C 10.2 °C 1003.9 hPa Calm     81% 0.0 mm 0 W/m2
06:23 13.2 °C 10.2 °C 1004.3 hPa Calm     82% 0.0 mm 0 W/m2
06:28 12.9 °C 10.1 °C 1003.9 hPa Calm     83% 0.0 mm 0 W/m2
06:33 12.6 °C 9.9 °C 1003.9 hPa Calm   1.1 km/h 84% 0.0 mm 0 W/m2
06:38 12.5 °C 10.2 °C 1003.9 hPa Calm   3.5 km/h 86% 0.0 mm 0 W/m2
06:43 12.5 °C 10.4 °C 1003.9 hPa Calm   3.5 km/h 87% 0.0 mm 0 W/m2
06:48 12.4 °C 10.4 °C 1003.9 hPa Calm     88% 0.0 mm 3 W/m2
06:53 12.3 °C 10.4 °C 1003.9 hPa Calm   2.6 km/h 88% 0.0 mm 7 W/m2
06:58 12.2 °C 10.4 °C 1003.9 hPa Calm   2.6 km/h 89% 0.0 mm 10 W/m2
07:03 12.3 °C 10.7 °C 1004.3 hPa Calm     90% 0.0 mm 23 W/m2
07:08 12.6 °C 11.0 °C 1004.3 hPa NW 1.1 km/h 3.5 km/h 90% 0.0 mm 62 W/m2
07:13 12.9 °C 11.3 °C 1004.3 hPa Calm   3.5 km/h 90% 0.0 mm 71 W/m2
07:18 13.6 °C 11.8 °C 1004.3 hPa Calm   3.5 km/h 89% 0.0 mm 40 W/m2
07:38 15.6 °C 12.7 °C 1004.6 hPa Calm     83% 0.0 mm 127 W/m2
07:43 16.2 °C 12.8 °C 1004.3 hPa Calm     80% 0.0 mm 142 W/m2
07:48 17.2 °C 13.2 °C 1004.6 hPa Calm     77% 0.0 mm 155 W/m2
07:53 18.5 °C 14.4 °C 1004.6 hPa Calm     77% 0.0 mm 181 W/m2
07:58 19.6 °C 14.4 °C 1005.0 hPa Calm     72% 0.0 mm 207 W/m2
08:03 19.8 °C 13.3 °C 1005.0 hPa Calm     66% 0.0 mm 93 W/m2
08:08 18.9 °C 12.2 °C 1005.0 hPa Calm   1.1 km/h 65% 0.0 mm 76 W/m2
08:13 18.2 °C 12.0 °C 1005.3 hPa Calm   1.1 km/h 67% 0.0 mm 41 W/m2
08:18 17.7 °C 12.2 °C 1005.3 hPa NNW 1.1 km/h 5.0 km/h 70% 0.0 mm 57 W/m2
08:23 17.3 °C 12.0 °C 1005.3 hPa Calm   5.0 km/h 71% 0.0 mm 36 W/m2
08:28 17.1 °C 12.0 °C 1005.3 hPa Calm   5.0 km/h 72% 0.0 mm 28 W/m2
08:33 17.0 °C 12.1 °C 1005.6 hPa Calm     73% 0.0 mm 29 W/m2
08:38 16.9 °C 12.2 °C 1005.6 hPa NNW 2.6 km/h 5.0 km/h 74% 0.0 mm 30 W/m2
08:43 16.8 °C 12.3 °C 1005.6 hPa NW 1.1 km/h 6.1 km/h 75% 0.0 mm 46 W/m2
08:48 16.9 °C 12.4 °C 1005.6 hPa Calm   6.1 km/h 75% 0.0 mm 51 W/m2
08:53 17.0 °C 12.6 °C 1005.6 hPa Calm   6.1 km/h 75% 0.0 mm 56 W/m2
08:58 17.1 °C 12.7 °C 1005.6 hPa Calm   2.6 km/h 75% 0.0 mm 56 W/m2
09:03 17.3 °C 12.8 °C 1005.6 hPa West 2.6 km/h 11.1 km/h 75% 0.0 mm 85 W/m2
09:08 17.5 °C 13.2 °C 1005.6 hPa West 2.6 km/h 11.1 km/h 76% 0.0 mm 91 W/m2
09:13 17.5 °C 13.4 °C 1005.6 hPa WSW 8.7 km/h 14.8 km/h 77% 0.0 mm 102 W/m2
09:18 17.6 °C 13.3 °C 1005.6 hPa Calm   14.8 km/h 76% 0.0 mm 99 W/m2
09:23 17.7 °C 13.4 °C 1006.0 hPa Calm   14.8 km/h 76% 0.0 mm 99 W/m2
09:28 17.9 °C 13.6 °C 1006.0 hPa WSW 8.7 km/h 11.1 km/h 76% 0.0 mm 93 W/m2
09:33 17.9 °C 13.4 °C 1006.0 hPa SW 6.1 km/h 11.1 km/h 75% 0.0 mm 73 W/m2
09:38 17.8 °C 12.9 °C 1006.0 hPa SW 6.1 km/h 14.8 km/h 73% 0.0 mm 114 W/m2
09:43 17.9 °C 13.0 °C 1006.3 hPa WSW 9.7 km/h 15.8 km/h 73% 0.0 mm 127 W/m2
09:48 18.3 °C 13.2 °C 1006.3 hPa WSW 9.7 km/h 18.3 km/h 72% 0.0 mm 99 W/m2
09:53 18.8 °C 13.2 °C 1006.3 hPa SW 8.7 km/h 18.3 km/h 70% 0.0 mm 72 W/m2
09:58 19.5 °C 13.0 °C 1006.3 hPa SW 6.1 km/h 14.8 km/h 66% 0.0 mm 69 W/m2
10:03 19.9 °C 13.1 °C 1006.3 hPa SW 6.1 km/h 13.4 km/h 65% 0.0 mm 67 W/m2
10:08 20.6 °C 12.6 °C 1006.7 hPa SW 6.1 km/h 11.1 km/h 60% 0.0 mm 68 W/m2
10:13 19.9 °C 11.9 °C 1006.7 hPa SSW 3.5 km/h 13.4 km/h 60% 0.0 mm 71 W/m2
10:18 19.9 °C 12.2 °C 1006.7 hPa SW 7.2 km/h 13.4 km/h 61% 0.0 mm 66 W/m2
10:23 19.1 °C 12.2 °C 1006.3 hPa SSW 7.2 km/h 14.8 km/h 64% 0.0 mm 67 W/m2
10:28 19.6 °C 13.1 °C 1006.7 hPa South 3.5 km/h 14.8 km/h 66% 0.0 mm 88 W/m2
10:33 19.9 °C 12.7 °C 1007.0 hPa SSW 5.0 km/h 12.2 km/h 63% 0.0 mm 130 W/m2
10:38 20.2 °C 12.7 °C 1007.0 hPa SSW 7.2 km/h 14.8 km/h 62% 0.0 mm 114 W/m2
10:43 19.3 °C 12.3 °C 1006.7 hPa South 7.2 km/h 14.8 km/h 64% 0.0 mm 405 W/m2
10:48 19.8 °C 12.8 °C 1006.7 hPa South 1.1 km/h 13.4 km/h 64% 0.0 mm 138 W/m2
10:53 20.3 °C 13.1 °C 1007.0 hPa South 5.0 km/h 9.7 km/h 63% 0.0 mm 406 W/m2
10:58 20.2 °C 12.4 °C 1007.0 hPa Calm   8.7 km/h 61% 0.0 mm 74 W/m2
11:03 19.9 °C 12.4 °C 1006.7 hPa SW 7.2 km/h 11.1 km/h 62% 0.0 mm 123 W/m2
11:08 19.6 °C 10.3 °C 1006.7 hPa West 3.5 km/h 17.2 km/h 55% 0.0 mm 358 W/m2
11:13 19.9 °C 9.2 °C 1006.7 hPa WNW 17.2 km/h 24.5 km/h 50% 0.0 mm 158 W/m2
11:18 20.2 °C 8.2 °C 1006.7 hPa NW 13.4 km/h 24.5 km/h 46% 0.0 mm 159 W/m2
11:23 20.2 °C 8.2 °C 1006.7 hPa NW 11.1 km/h 27.0 km/h 46% 0.0 mm 463 W/m2
11:28 20.5 °C 8.5 °C 1006.7 hPa NW 8.7 km/h 27.0 km/h 46% 0.0 mm 465 W/m2
11:33 20.8 °C 8.1 °C 1006.7 hPa NW 8.7 km/h 28.0 km/h 44% 0.0 mm 486 W/m2
11:38 20.8 °C 7.8 °C 1006.7 hPa NW 11.1 km/h 28.0 km/h 43% 0.0 mm 469 W/m2
11:43 21.0 °C 7.6 °C 1006.7 hPa NW 12.2 km/h 28.0 km/h 42% 0.0 mm 435 W/m2
11:48 21.0 °C 6.9 °C 1006.7 hPa WNW 20.9 km/h 28.0 km/h 40% 0.0 mm 414 W/m2
11:53 21.0 °C 7.6 °C 1006.7 hPa NW 11.1 km/h 28.0 km/h 42% 0.0 mm 420 W/m2
11:58 20.6 °C 6.2 °C 1006.7 hPa NW 12.2 km/h 34.3 km/h 39% 0.0 mm 417 W/m2
12:03 20.5 °C 6.4 °C 1006.7 hPa NW 11.1 km/h 34.3 km/h 40% 0.0 mm 393 W/m2
12:08 20.3 °C 5.9 °C 1006.7 hPa WNW 14.8 km/h 24.5 km/h 39% 0.0 mm 93 W/m2
12:13 19.6 °C 6.3 °C 1006.7 hPa WNW 9.7 km/h 24.5 km/h 42% 0.0 mm 439 W/m2
12:18 20.0 °C 6.7 °C 1006.3 hPa WNW 5.0 km/h 23.3 km/h 42% 0.0 mm 185 W/m2
12:23 20.6 °C 6.6 °C 1006.3 hPa WNW 6.1 km/h 24.5 km/h 40% 0.0 mm 480 W/m2
12:28 21.3 °C 7.2 °C 1006.3 hPa West 6.1 km/h 24.5 km/h 40% 0.0 mm 447 W/m2
12:33 21.7 °C 7.5 °C 1006.3 hPa West 6.1 km/h 19.5 km/h 40% 0.0 mm 422 W/m2
12:38 21.1 °C 5.4 °C 1006.3 hPa WNW 13.4 km/h 28.0 km/h 36% 0.0 mm 405 W/m2
12:43 21.0 °C 6.2 °C 1006.0 hPa NW 13.4 km/h 28.0 km/h 38% 0.0 mm 402 W/m2
12:48 20.8 °C 7.1 °C 1006.3 hPa NW 19.5 km/h 37.8 km/h 41% 0.0 mm 394 W/m2
12:53 20.5 °C 7.5 °C 1006.0 hPa NW 13.4 km/h 37.8 km/h 43% 0.0 mm 391 W/m2
12:58 20.2 °C 6.2 °C 1006.0 hPa NW 17.2 km/h 35.6 km/h 40% 0.0 mm 381 W/m2
13:03 20.4 °C 7.1 °C 1006.0 hPa NNW 13.4 km/h 31.7 km/h 42% 0.0 mm 371 W/m2
13:08 20.5 °C 7.2 °C 1006.0 hPa NW 29.4 km/h 39.3 km/h 42% 0.0 mm 355 W/m2
13:13 20.3 °C 7.0 °C 1006.0 hPa NW 25.6 km/h 43.9 km/h 42% 0.0 mm 318 W/m2
13:18 20.2 °C 6.9 °C 1006.0 hPa NW 12.2 km/h 43.9 km/h 42% 0.0 mm 280 W/m2
13:23 20.2 °C 7.2 °C 1006.0 hPa NW 17.2 km/h 42.8 km/h 43% 0.0 mm 285 W/m2
13:28 20.3 °C 7.0 °C 1006.3 hPa NW 14.8 km/h 41.7 km/h 42% 0.0 mm 464 W/m2
13:33 20.6 °C 7.6 °C 1006.3 hPa NW 17.2 km/h 41.7 km/h 43% 0.0 mm 430 W/m2
13:38 20.2 °C 7.2 °C 1006.7 hPa NW 15.8 km/h 30.6 km/h 43% 0.0 mm 245 W/m2
13:43 19.9 °C 7.6 °C 1006.3 hPa NW 21.9 km/h 30.6 km/h 45% 0.0 mm 351 W/m2
13:48 19.8 °C 7.6 °C 1006.3 hPa NNW 13.4 km/h 31.7 km/h 45% 0.0 mm 247 W/m2
13:53 19.8 °C 7.6 °C 1006.3 hPa NNW 18.3 km/h 34.3 km/h 45% 0.0 mm 242 W/m2
13:58 19.4 °C 7.8 °C 1006.7 hPa NW 21.9 km/h 34.3 km/h 47% 0.0 mm 194 W/m2
14:03 18.7 °C 8.1 °C 1006.3 hPa NW 13.4 km/h 34.3 km/h 50% 0.0 mm 165 W/m2
14:08 18.0 °C 6.5 °C 1006.7 hPa NW 19.5 km/h 37.8 km/h 47% 0.0 mm 191 W/m2
14:13 18.7 °C 7.2 °C 1006.7 hPa NW 25.6 km/h 41.7 km/h 47% 0.0 mm 258 W/m2
14:31 18.8 °C 7.9 °C 1006.7 hPa NW 13.4 km/h 35.6 km/h 49% 0.0 mm 115 W/m2
14:36 18.7 °C 7.8 °C 1007.0 hPa NW 14.8 km/h 30.6 km/h 49% 0.0 mm 102 W/m2
14:41 19.1 °C 8.4 °C 1007.0 hPa NNW 17.2 km/h 30.6 km/h 50% 0.0 mm 89 W/m2
14:46 19.5 °C 8.5 °C 1007.0 hPa NNW 13.4 km/h 28.0 km/h 49% 0.0 mm 149 W/m2
14:51 19.8 °C 8.5 °C 1007.0 hPa NNW 14.8 km/h 28.0 km/h 48% 0.0 mm 100 W/m2
14:56 20.0 °C 7.7 °C 1007.3 hPa NW 7.2 km/h 25.6 km/h 45% 0.0 mm 88 W/m2
15:01 19.7 °C 7.4 °C 1007.3 hPa WNW 13.4 km/h 30.6 km/h 45% 0.0 mm 154 W/m2
15:06 20.0 °C 7.7 °C 1007.0 hPa WNW 12.2 km/h 30.6 km/h 45% 0.0 mm 162 W/m2
15:11 19.5 °C 7.3 °C 1007.0 hPa WNW 8.7 km/h 21.9 km/h 45% 0.0 mm 98 W/m2
15:16 18.3 °C 6.5 °C 1007.3 hPa WNW 23.3 km/h 33.1 km/h 46% 0.0 mm 83 W/m2
15:21 17.8 °C 7.2 °C 1007.3 hPa WNW 8.7 km/h 33.1 km/h 50% 0.0 mm 47 W/m2
15:26 17.4 °C 7.2 °C 1007.7 hPa WNW 11.1 km/h 33.1 km/h 51% 0.0 mm 23 W/m2
15:31 16.7 °C 6.2 °C 1008.4 hPa WNW 23.3 km/h 39.3 km/h 50% 0.0 mm 17 W/m2
15:36 15.7 °C 6.7 °C 1007.3 hPa WNW 8.7 km/h 39.3 km/h 55% 0.0 mm 34 W/m2
15:41 15.2 °C 7.0 °C 1007.3 hPa WNW 5.0 km/h 21.9 km/h 58% 0.0 mm 71 W/m2
15:46 15.1 °C 7.4 °C 1007.3 hPa NW 2.6 km/h 17.2 km/h 60% 0.0 mm 82 W/m2
15:51 14.9 °C 8.4 °C 1007.7 hPa NW 3.5 km/h 12.2 km/h 65% 0.0 mm 125 W/m2
15:56 15.3 °C 9.0 °C 1008.0 hPa NW 1.1 km/h 12.2 km/h 66% 0.0 mm 169 W/m2
16:01 16.4 °C 9.3 °C 1008.4 hPa NW 6.1 km/h 12.2 km/h 63% 0.0 mm 167 W/m2
16:06 17.1 °C 9.1 °C 1008.0 hPa NW 19.5 km/h 24.5 km/h 59% 0.0 mm 143 W/m2
16:11 16.7 °C 8.9 °C 1008.0 hPa NNW 9.7 km/h 24.5 km/h 60% 0.0 mm 112 W/m2
16:16 16.8 °C 8.5 °C 1008.4 hPa NNW 6.1 km/h 24.5 km/h 58% 0.0 mm 93 W/m2
16:21 17.0 °C 8.2 °C 1008.7 hPa NNW 3.5 km/h 19.5 km/h 56% 0.0 mm 82 W/m2
16:26 17.6 °C 8.4 °C 1008.4 hPa NW 3.5 km/h 13.4 km/h 55% 0.0 mm 75 W/m2
16:31 17.1 °C 8.0 °C 1008.4 hPa NW 3.5 km/h 14.8 km/h 55% 0.0 mm 69 W/m2
16:36 16.8 °C 8.7 °C 1008.4 hPa NW 5.0 km/h 14.8 km/h 59% 0.0 mm 65 W/m2
16:41 16.6 °C 8.8 °C 1008.7 hPa NNW 5.0 km/h 13.4 km/h 60% 0.0 mm 60 W/m2
16:46 16.9 °C 9.1 °C 1009.0 hPa NNW 8.7 km/h 12.2 km/h 60% 0.0 mm 55 W/m2
16:51 16.6 °C 9.1 °C 1009.4 hPa NW 5.0 km/h 12.2 km/h 61% 0.0 mm 66 W/m2
16:56 16.7 °C 9.2 °C 1008.7 hPa NW 2.6 km/h 11.1 km/h 61% 0.0 mm 43 W/m2
17:01 16.9 °C 9.1 °C 1009.0 hPa NW 9.7 km/h 12.2 km/h 60% 0.0 mm 33 W/m2
17:06 16.4 °C 8.9 °C 1009.0 hPa NW 5.0 km/h 12.2 km/h 61% 0.0 mm 28 W/m2
17:11 16.6 °C 9.1 °C 1009.4 hPa Calm   12.2 km/h 61% 0.0 mm 24 W/m2
17:16 16.7 °C 9.2 °C 1009.4 hPa Calm   7.2 km/h 61% 0.0 mm 19 W/m2
17:21 16.3 °C 8.8 °C 1009.4 hPa NNW 1.1 km/h 5.0 km/h 61% 0.0 mm 12 W/m2
17:26 15.7 °C 8.9 °C 1009.4 hPa NNW 1.1 km/h 6.1 km/h 64% 0.0 mm 7 W/m2
17:31 15.1 °C 8.6 °C 1009.4 hPa Calm   6.1 km/h 65% 0.0 mm 4 W/m2
17:36 14.2 °C 8.6 °C 1009.4 hPa Calm   5.0 km/h 69% 0.0 mm 1 W/m2
17:41 14.0 °C 8.8 °C 1009.7 hPa Calm   2.6 km/h 71% 0.0 mm 0 W/m2
17:46 13.4 °C 8.9 °C 1009.7 hPa Calm   1.1 km/h 74% 0.0 mm 0 W/m2
17:51 13.2 °C 8.9 °C 1010.0 hPa Calm   1.1 km/h 75% 0.0 mm 0 W/m2
17:56 12.9 °C 8.6 °C 1010.0 hPa Calm     75% 0.0 mm 0 W/m2
18:01 12.9 °C 8.8 °C 1010.0 hPa Calm     76% 0.0 mm 0 W/m2
18:06 12.5 °C 8.6 °C 1010.0 hPa Calm   2.6 km/h 77% 0.0 mm 0 W/m2
18:11 12.3 °C 8.8 °C 1010.0 hPa Calm   2.6 km/h 79% 0.0 mm 0 W/m2
18:16 12.0 °C 8.7 °C 1010.4 hPa Calm     80% 0.0 mm 0 W/m2
18:21 12.0 °C 8.8 °C 1010.4 hPa Calm     81% 0.0 mm 0 W/m2
18:26 11.6 °C 8.6 °C 1010.7 hPa Calm     82% 0.0 mm 0 W/m2
18:31 11.6 °C 8.6 °C 1010.7 hPa Calm   3.5 km/h 82% 0.0 mm 0 W/m2
18:36 11.6 °C 8.6 °C 1010.7 hPa NW 2.6 km/h 5.0 km/h 82% 0.0 mm 0 W/m2
18:41 11.7 °C 8.9 °C 1010.7 hPa Calm   5.0 km/h 83% 0.0 mm 0 W/m2
18:46 11.4 °C 8.6 °C 1010.7 hPa NW 1.1 km/h 5.0 km/h 83% 0.0 mm 0 W/m2
18:51 11.3 °C 8.7 °C 1011.1 hPa NW 5.0 km/h 7.2 km/h 84% 0.0 mm 0 W/m2
18:56 11.1 °C 8.5 °C 1011.1 hPa NW 2.6 km/h 7.2 km/h 84% 0.0 mm 0 W/m2
19:01 11.2 °C 8.8 °C 1011.4 hPa Calm   6.1 km/h 85% 0.0 mm 0 W/m2
19:06 10.8 °C 8.7 °C 1011.4 hPa NW 1.1 km/h 6.1 km/h 87% 0.0 mm 0 W/m2
19:11 10.6 °C 8.7 °C 1011.4 hPa Calm   6.1 km/h 88% 0.0 mm 0 W/m2
19:16 10.5 °C 8.6 °C 1011.4 hPa Calm   3.5 km/h 88% 0.0 mm 0 W/m2
19:21 10.5 °C 8.8 °C 1011.7 hPa NW 2.6 km/h 6.1 km/h 89% 0.0 mm 0 W/m2
19:26 10.2 °C 8.6 °C 1011.7 hPa Calm   6.1 km/h 90% 0.0 mm 0 W/m2
19:31 10.1 °C 8.6 °C 1011.7 hPa Calm   3.5 km/h 90% 0.0 mm 0 W/m2
19:36 10.0 °C 8.6 °C 1012.1 hPa Calm   2.6 km/h 91% 0.0 mm 0 W/m2
19:41 10.1 °C 8.9 °C 1012.1 hPa Calm   2.6 km/h 92% 0.0 mm 0 W/m2
19:46 9.7 °C 8.6 °C 1012.1 hPa Calm     93% 0.0 mm 0 W/m2
19:51 9.7 °C 8.8 °C 1012.1 hPa Calm   2.6 km/h 94% 0.0 mm 0 W/m2
19:56 9.6 °C 8.7 °C 1012.1 hPa NW 3.5 km/h 7.2 km/h 94% 0.0 mm 0 W/m2
20:01 9.7 °C 8.8 °C 1012.1 hPa NW 6.1 km/h 8.7 km/h 94% 0.0 mm 0 W/m2
20:06 9.5 °C 8.6 °C 1012.4 hPa NW 1.1 km/h 8.7 km/h 94% 0.0 mm 0 W/m2
20:11 9.4 °C 8.5 °C 1012.1 hPa Calm   8.7 km/h 94% 0.0 mm 0 W/m2
20:16 9.3 °C 8.4 °C 1012.4 hPa NW 1.1 km/h 6.1 km/h 94% 0.0 mm 0 W/m2
20:21 9.5 °C 8.4 °C 1012.4 hPa Calm   6.1 km/h 93% 0.0 mm 0 W/m2
20:26 9.2 °C 8.1 °C 1012.4 hPa Calm   2.6 km/h 93% 0.0 mm 0 W/m2
20:31 9.0 °C 7.9 °C 1012.4 hPa Calm     93% 0.0 mm 0 W/m2
20:36 9.0 °C 7.9 °C 1012.8 hPa Calm     93% 0.0 mm 0 W/m2
20:41 8.8 °C 7.9 °C 1012.8 hPa Calm   2.6 km/h 94% 0.0 mm 0 W/m2
20:46 8.9 °C 8.0 °C 1012.8 hPa Calm   3.5 km/h 94% 0.0 mm 0 W/m2
20:51 8.7 °C 7.8 °C 1012.8 hPa Calm   3.5 km/h 94% 0.0 mm 0 W/m2
20:56 8.6 °C 7.7 °C 1012.8 hPa Calm   2.6 km/h 94% 0.0 mm 0 W/m2
21:01 8.7 °C 7.9 °C 1013.1 hPa Calm   1.1 km/h 95% 0.0 mm 0 W/m2
21:06 8.6 °C 7.7 °C 1012.8 hPa Calm     94% 0.0 mm 0 W/m2
21:11 8.6 °C 7.7 °C 1012.8 hPa NW 2.6 km/h 5.0 km/h 94% 0.0 mm 0 W/m2
21:16 8.6 °C 7.7 °C 1013.1 hPa NNW 1.1 km/h 5.0 km/h 94% 0.0 mm 0 W/m2
21:21 9.0 °C 7.9 °C 1013.1 hPa Calm   5.0 km/h 93% 0.0 mm 0 W/m2
21:26 8.3 °C 7.4 °C 1013.1 hPa Calm   3.5 km/h 94% 0.0 mm 0 W/m2
21:31 8.1 °C 7.1 °C 1013.1 hPa Calm     93% 0.0 mm 0 W/m2
21:36 8.2 °C 7.3 °C 1013.4 hPa Calm     94% 0.0 mm 0 W/m2
21:41 8.0 °C 7.1 °C 1013.4 hPa Calm     94% 0.0 mm 0 W/m2
21:46 8.0 °C 7.1 °C 1013.4 hPa Calm     94% 0.0 mm 0 W/m2
21:51 7.7 °C 6.8 °C 1013.4 hPa Calm     94% 0.0 mm 0 W/m2
21:56 7.7 °C 6.8 °C 1013.4 hPa NW 1.1 km/h 3.5 km/h 94% 0.0 mm 0 W/m2
22:01 7.4 °C 6.7 °C 1013.4 hPa Calm   3.5 km/h 95% 0.0 mm 0 W/m2
22:06 7.5 °C 6.8 °C 1013.4 hPa North 2.6 km/h 5.0 km/h 95% 0.0 mm 0 W/m2
22:11 7.5 °C 6.9 °C 1013.4 hPa North 2.6 km/h 5.0 km/h 96% 0.0 mm 0 W/m2
22:16 7.4 °C 6.9 °C 1013.4 hPa Calm   5.0 km/h 97% 0.0 mm 0 W/m2
22:21 7.4 °C 6.9 °C 1013.8 hPa North 2.6 km/h 5.0 km/h 97% 0.0 mm 0 W/m2
22:26 7.6 °C 7.2 °C 1013.8 hPa NW 3.5 km/h 5.0 km/h 97% 0.0 mm 0 W/m2
22:31 7.5 °C 7.1 °C 1013.8 hPa NW 3.5 km/h 5.0 km/h 97% 0.0 mm 0 W/m2
22:36 7.5 °C 7.1 °C 1013.8 hPa NW 3.5 km/h 6.1 km/h 97% 0.0 mm 0 W/m2
22:41 7.5 °C 7.1 °C 1014.1 hPa NW 2.6 km/h 6.1 km/h 97% 0.0 mm 0 W/m2
22:46 7.4 °C 6.9 °C 1014.1 hPa Calm   5.0 km/h 97% 0.0 mm 0 W/m2
22:51 7.3 °C 6.8 °C 1013.8 hPa NW 3.5 km/h 5.0 km/h 97% 0.0 mm 0 W/m2
22:56 7.2 °C 6.8 °C 1014.1 hPa NW 3.5 km/h 6.1 km/h 97% 0.0 mm 0 W/m2
23:01 7.6 °C 7.2 °C 1014.1 hPa NW 3.5 km/h 6.1 km/h 97% 0.0 mm 0 W/m2
23:06 7.1 °C 6.7 °C 1014.1 hPa NW 2.6 km/h 5.0 km/h 97% 0.0 mm 0 W/m2
23:11 7.0 °C 6.6 °C 1014.1 hPa NNW 2.6 km/h 5.0 km/h 97% 0.0 mm 0 W/m2
23:16 7.0 °C 6.6 °C 1014.1 hPa North 3.5 km/h 6.1 km/h 97% 0.0 mm 0 W/m2
23:21 6.9 °C 6.6 °C 1014.1 hPa North 3.5 km/h 6.1 km/h 98% 0.0 mm 0 W/m2
23:26 6.8 °C 6.5 °C 1014.4 hPa North 3.5 km/h 6.1 km/h 98% 0.0 mm 0 W/m2
23:31 6.8 °C 6.5 °C 1014.4 hPa North 5.0 km/h 7.2 km/h 98% 0.0 mm 0 W/m2
23:36 6.7 °C 6.4 °C 1014.4 hPa NNW 6.1 km/h 8.7 km/h 98% 0.0 mm 0 W/m2
23:41 6.7 °C 6.4 °C 1014.4 hPa NNW 6.1 km/h 8.7 km/h 98% 0.0 mm 0 W/m2
23:46 6.7 °C 6.4 °C 1014.4 hPa NNW 5.0 km/h 8.7 km/h 98% 0.0 mm 0 W/m2
23:51 6.6 °C 6.3 °C 1014.8 hPa NW 2.6 km/h 8.7 km/h 98% 0.0 mm 0 W/m2
23:56 6.5 °C 6.2 °C 1014.8 hPa Calm   6.1 km/h 98% 0.0 mm 0 W/m2
Northern Hawkes Bay. New Zealand Historic Data
Compliments of Weather Underground - 2 mb